createdAt,value
2022-12-05T00:00:25.889Z,101454.56
2022-12-05T00:03:28.172Z,101449.19
2022-12-05T00:06:31.806Z,101432.75
2022-12-05T00:09:34.065Z,101441.44
2022-12-05T00:12:36.451Z,101448.47
2022-12-05T00:15:40.598Z,101456.53
2022-12-05T00:18:43.281Z,101459.50
2022-12-05T00:21:46.097Z,101468.53
2022-12-05T00:24:48.400Z,101455.16
2022-12-05T00:27:50.952Z,101455.56
2022-12-05T00:30:53.269Z,101450.63
2022-12-05T00:33:56.492Z,101455.69
2022-12-05T00:36:58.785Z,101455.28
2022-12-05T00:40:01.091Z,101457.84
2022-12-05T00:43:03.396Z,101443.75
2022-12-05T00:46:08.296Z,101442.47
2022-12-05T00:49:12.096Z,101442.66
2022-12-05T00:52:14.413Z,101437.28
2022-12-05T00:55:16.813Z,101436.81
2022-12-05T00:58:19.062Z,101438.88
2022-12-05T01:01:27.461Z,101441.28
2022-12-05T01:04:29.796Z,101447.75
2022-12-05T01:07:32.254Z,101438.31
2022-12-05T01:10:34.606Z,101443.63
2022-12-05T01:13:37.229Z,101444.34
2022-12-05T01:16:41.541Z,101443.81
2022-12-05T01:19:43.938Z,101453.31
2022-12-05T01:22:46.221Z,101448.06
2022-12-05T01:25:50.380Z,101441.13
2022-12-05T01:28:53.375Z,101448.06
2022-12-05T01:31:56.060Z,101426.72
2022-12-05T01:34:58.308Z,101437.50
2022-12-05T01:38:00.643Z,101418.16
2022-12-05T01:41:04.918Z,101418.25
2022-12-05T01:44:13.059Z,101412.31
2022-12-05T01:47:17.949Z,101404.81
2022-12-05T01:50:20.597Z,101388.50
2022-12-05T01:53:23.269Z,101379.16
2022-12-05T01:56:25.886Z,101396.75
2022-12-05T01:59:30.063Z,101400.47
2022-12-05T02:02:33.529Z,101406.69
2022-12-05T02:05:37.635Z,101408.28
2022-12-05T02:08:40.103Z,101390.44
2022-12-05T02:11:52.770Z,101402.94
2022-12-05T02:15:04.509Z,101398.31
2022-12-05T02:18:40.232Z,101394.59
2022-12-05T02:21:42.574Z,101383.78
2022-12-05T02:25:03.041Z,101388.34
2022-12-05T02:28:46.427Z,101405.66
2022-12-05T02:32:15.288Z,101397.78
2022-12-05T02:35:25.589Z,101388.19
2022-12-05T02:38:32.207Z,101397.84
2022-12-05T02:41:54.812Z,101397.41
2022-12-05T02:45:10.141Z,101389.59
2022-12-05T02:48:15.183Z,101391.47
2022-12-05T02:51:20.791Z,101395.16
2022-12-05T02:54:29.265Z,101389.25
2022-12-05T02:57:32.349Z,101400.19
2022-12-05T03:00:36.880Z,101395.63
2022-12-05T03:03:39.443Z,101397.50
2022-12-05T03:06:58.157Z,101391.75
2022-12-05T03:10:04.042Z,101387.59
2022-12-05T03:13:10.926Z,101386.00
2022-12-05T03:16:21.565Z,101377.69
2022-12-05T03:19:42.348Z,101370.28
2022-12-05T03:22:49.726Z,101381.09
2022-12-05T03:26:00.839Z,101373.50
2022-12-05T03:29:42.828Z,101376.53
2022-12-05T03:33:03.928Z,101391.25
2022-12-05T03:36:12.789Z,101388.13
2022-12-05T03:39:26.680Z,101397.50
2022-12-05T03:42:32.995Z,101393.91
2022-12-05T03:45:40.378Z,101405.25
2022-12-05T03:49:08.339Z,101405.72
2022-12-05T03:52:10.637Z,101403.69
2022-12-05T03:55:14.813Z,101402.50
2022-12-05T03:58:27.399Z,101400.53
2022-12-05T04:01:30.690Z,101403.78
2022-12-05T04:04:39.082Z,101391.19
2022-12-05T04:07:43.005Z,101373.88
2022-12-05T04:10:50.345Z,101376.53
2022-12-05T04:13:55.559Z,101371.41
2022-12-05T04:17:09.381Z,101368.50
2022-12-05T04:21:01.517Z,101369.72
2022-12-05T04:24:22.573Z,101369.31
2022-12-05T04:27:34.868Z,101361.28
2022-12-05T04:31:03.397Z,101360.13
2022-12-05T04:34:08.318Z,101342.66
2022-12-05T04:37:14.211Z,101349.72
2022-12-05T04:40:31.590Z,101356.16
2022-12-05T04:43:38.273Z,101354.44
2022-12-05T04:46:42.024Z,101349.78
2022-12-05T04:49:48.032Z,101352.38
2022-12-05T04:52:55.794Z,101354.97
2022-12-05T04:55:59.885Z,101364.09
2022-12-05T04:59:02.224Z,101358.72
2022-12-05T05:02:09.865Z,101367.22
2022-12-05T05:05:14.319Z,101367.97
2022-12-05T05:08:19.470Z,101369.81
2022-12-05T05:11:24.114Z,101367.19
2022-12-05T05:14:26.371Z,101369.94
2022-12-05T05:17:28.725Z,101377.44
2022-12-05T05:20:31.012Z,101373.88
2022-12-05T05:23:33.330Z,101369.63
2022-12-05T05:26:38.929Z,101376.34
2022-12-05T05:29:41.392Z,101369.16
2022-12-05T05:32:43.878Z,101379.41
2022-12-05T05:35:46.562Z,101385.50
2022-12-05T05:38:50.756Z,101378.34
2022-12-05T05:41:53.018Z,101362.91
2022-12-05T05:44:55.575Z,101360.31
2022-12-05T05:47:57.987Z,101375.50
2022-12-05T05:51:01.223Z,101375.28
2022-12-05T05:54:03.567Z,101366.75
2022-12-05T05:57:05.887Z,101365.63
2022-12-05T06:00:09.078Z,101362.66
2022-12-05T06:03:11.597Z,101356.88
2022-12-05T06:06:15.192Z,101364.31
2022-12-05T06:09:17.594Z,101366.34
2022-12-05T06:12:19.892Z,101371.41
2022-12-05T06:15:22.417Z,101369.31
2022-12-05T06:18:24.707Z,101372.47
2022-12-05T06:21:27.648Z,101372.47
2022-12-05T06:24:29.937Z,101373.66
2022-12-05T06:27:33.410Z,101357.31
2022-12-05T06:30:35.705Z,101368.28
2022-12-05T06:33:38.280Z,101371.19
2022-12-05T06:36:40.630Z,101369.22
2022-12-05T06:39:42.993Z,101362.47
2022-12-05T06:42:45.271Z,101366.53
2022-12-05T06:45:47.646Z,101368.13
2022-12-05T06:48:50.034Z,101367.44
2022-12-05T06:51:53.515Z,101365.81
2022-12-05T06:54:55.960Z,101369.53
2022-12-05T06:57:58.331Z,101369.69
2022-12-05T07:01:19.426Z,101374.09
2022-12-05T07:04:26.318Z,101375.72
2022-12-05T07:07:30.252Z,101369.75
2022-12-05T07:10:32.661Z,101374.56
2022-12-05T07:13:35.041Z,101378.78
2022-12-05T07:16:37.636Z,101371.63
2022-12-05T07:19:40.138Z,101381.47
2022-12-05T07:22:42.409Z,101370.28
2022-12-05T07:25:44.723Z,101380.31
2022-12-05T07:28:47.819Z,101382.69
2022-12-05T07:31:50.149Z,101379.75
2022-12-05T07:34:55.520Z,101383.94
2022-12-05T07:37:58.894Z,101383.09
2022-12-05T07:41:10.196Z,101380.88
2022-12-05T07:44:15.295Z,101357.66
2022-12-05T07:47:17.646Z,101386.53
2022-12-05T07:50:20.030Z,101387.69
2022-12-05T07:53:22.293Z,101378.22
2022-12-05T07:56:24.689Z,101380.31
2022-12-05T07:59:26.992Z,101374.84
2022-12-05T08:02:29.376Z,101368.28
2022-12-05T08:05:31.766Z,101358.75
2022-12-05T08:08:34.522Z,101367.00
2022-12-05T08:11:37.034Z,101355.06
2022-12-05T08:14:39.364Z,101366.75
2022-12-05T08:17:41.820Z,101360.09
2022-12-05T08:20:44.193Z,101356.66
2022-12-05T08:23:47.176Z,101362.50
2022-12-05T08:26:49.722Z,101360.59
2022-12-05T08:29:52.336Z,101362.50
2022-12-05T08:32:54.597Z,101361.19
2022-12-05T08:35:56.987Z,101359.91
2022-12-05T08:39:01.786Z,101357.13
2022-12-05T08:42:04.184Z,101351.66
2022-12-05T08:45:07.089Z,101352.22
2022-12-05T08:48:09.433Z,101349.88
2022-12-05T08:51:13.417Z,101355.66
2022-12-05T08:54:15.992Z,101363.22
2022-12-05T08:57:18.257Z,101340.81
2022-12-05T09:00:20.891Z,101347.09
2022-12-05T09:03:23.351Z,101343.69
2022-12-05T09:06:26.201Z,101355.81
2022-12-05T09:09:28.597Z,101341.00
2022-12-05T09:12:30.841Z,101343.31
2022-12-05T09:15:33.322Z,101351.84
2022-12-05T09:18:36.795Z,101344.06
2022-12-05T09:21:39.482Z,101348.97
2022-12-05T09:24:41.828Z,101347.09
2022-12-05T09:27:44.200Z,101336.94
2022-12-05T09:30:46.528Z,101333.59
2022-12-05T09:33:49.994Z,101331.28
2022-12-05T09:37:05.614Z,101341.19
2022-12-05T09:40:19.712Z,101344.63
2022-12-05T09:43:28.061Z,101336.66
2022-12-05T09:46:52.706Z,101331.19
2022-12-05T09:50:22.384Z,101328.41
2022-12-05T09:53:35.492Z,101333.41
2022-12-05T09:56:39.152Z,101323.38
2022-12-05T09:59:41.384Z,101318.28
2022-12-05T10:03:00.048Z,101319.69
2022-12-05T10:06:06.969Z,101325.66
2022-12-05T10:09:12.149Z,101316.28
2022-12-05T10:12:41.771Z,101319.63
2022-12-05T10:15:50.161Z,101317.41
2022-12-05T10:19:00.897Z,101304.81
2022-12-05T10:22:14.776Z,101311.09
2022-12-05T10:25:23.204Z,101303.22
2022-12-05T10:28:34.704Z,101287.50
2022-12-05T10:31:38.540Z,101283.78
2022-12-05T10:34:41.803Z,101294.25
2022-12-05T10:38:11.117Z,101288.81
2022-12-05T10:41:15.020Z,101270.81
2022-12-05T10:44:17.416Z,101275.97
2022-12-05T10:47:19.763Z,101289.72
2022-12-05T10:50:34.047Z,101279.31
2022-12-05T10:53:49.814Z,101273.13
2022-12-05T10:56:53.946Z,101285.63
2022-12-05T10:59:57.706Z,101273.66
2022-12-05T11:03:04.732Z,101266.53
2022-12-05T11:06:39.421Z,101254.19
2022-12-05T11:09:41.549Z,101249.31
2022-12-05T11:12:44.006Z,101255.81
2022-12-05T11:15:53.751Z,101245.09
2022-12-05T11:18:57.507Z,101246.41
2022-12-05T11:22:00.225Z,101237.69
2022-12-05T11:25:32.471Z,101236.16
2022-12-05T11:28:37.994Z,101228.44
2022-12-05T11:31:40.388Z,101238.13
2022-12-05T11:34:57.938Z,101229.03
2022-12-05T11:38:04.963Z,101225.03
2022-12-05T11:41:31.598Z,101211.38
2022-12-05T11:44:43.347Z,101212.03
2022-12-05T11:48:00.032Z,101205.28
2022-12-05T11:51:27.248Z,101207.31
2022-12-05T11:55:05.998Z,101211.44
2022-12-05T11:58:14.419Z,101210.72
2022-12-05T12:01:39.560Z,101194.19
2022-12-05T12:05:06.571Z,101196.19
2022-12-05T12:08:25.774Z,101189.84
2022-12-05T12:11:30.687Z,101197.59
2022-12-05T12:14:38.544Z,101189.47
2022-12-05T12:17:53.744Z,101187.53
2022-12-05T12:21:19.122Z,101180.03
2022-12-05T12:24:48.926Z,101183.16
2022-12-05T12:28:05.439Z,101174.00
2022-12-05T12:31:16.149Z,101174.94
2022-12-05T12:34:38.264Z,101178.84
2022-12-05T12:37:40.542Z,101168.50
2022-12-05T12:40:49.536Z,101170.00
2022-12-05T12:44:06.890Z,101168.41
2022-12-05T12:47:40.292Z,101168.88
2022-12-05T12:50:44.810Z,101161.19
2022-12-05T12:54:14.874Z,101167.25
2022-12-05T12:57:48.152Z,101176.13
2022-12-05T13:01:14.889Z,101173.88
2022-12-05T13:04:28.948Z,101163.59
2022-12-05T13:07:35.533Z,101141.00
2022-12-05T13:10:40.799Z,101154.84
2022-12-05T13:13:47.211Z,101146.13
2022-12-05T13:16:53.211Z,101143.66
2022-12-05T13:19:57.725Z,101146.66
2022-12-05T13:23:06.135Z,101150.38
2022-12-05T13:26:12.126Z,101140.53
2022-12-05T13:29:22.313Z,101129.63
2022-12-05T13:32:36.405Z,101130.75
2022-12-05T13:35:58.448Z,101118.41
2022-12-05T13:39:25.396Z,101113.03
2022-12-05T13:42:30.438Z,101103.25
2022-12-05T13:45:34.906Z,101103.06
2022-12-05T13:48:49.701Z,101101.38
2022-12-05T13:51:52.481Z,101083.63
2022-12-05T13:55:20.518Z,101086.75
2022-12-05T13:58:22.773Z,101092.69
2022-12-05T14:01:28.112Z,101090.38
2022-12-05T14:04:48.237Z,101090.25
2022-12-05T14:07:52.236Z,101089.97
2022-12-05T14:10:54.478Z,101078.19
2022-12-05T14:14:03.791Z,101072.34
2022-12-05T14:17:07.942Z,101065.09
2022-12-05T14:20:16.521Z,101084.28
2022-12-05T14:23:21.809Z,101094.06
2022-12-05T14:26:41.821Z,101096.94
2022-12-05T14:30:02.219Z,101098.13
2022-12-05T14:33:04.655Z,101098.91
2022-12-05T14:36:09.111Z,101091.28
2022-12-05T14:39:31.318Z,101111.25
2022-12-05T14:42:43.162Z,101107.66
2022-12-05T14:45:51.649Z,101097.94
2022-12-05T14:48:56.103Z,101094.72
2022-12-05T14:51:58.661Z,101091.84
2022-12-05T14:55:04.594Z,101095.41
2022-12-05T14:58:20.964Z,101081.78
2022-12-05T15:01:25.198Z,101079.13
2022-12-05T15:04:43.196Z,101071.03
2022-12-05T15:07:46.658Z,101056.88
2022-12-05T15:10:51.113Z,101068.72
2022-12-05T15:13:53.602Z,101066.94
2022-12-05T15:16:56.694Z,101058.88
2022-12-05T15:20:06.565Z,101068.06
2022-12-05T15:23:46.160Z,101069.31
2022-12-05T15:26:52.932Z,101053.94
2022-12-05T15:29:56.688Z,101060.81
2022-12-05T15:33:00.035Z,101054.63
2022-12-05T15:36:02.568Z,101048.72
2022-12-05T15:39:06.858Z,101049.94
2022-12-05T15:42:12.403Z,101052.16
2022-12-05T15:45:15.573Z,101045.31
2022-12-05T15:48:22.864Z,101047.78
2022-12-05T15:51:33.464Z,101048.06
2022-12-05T15:54:36.555Z,101042.66
2022-12-05T15:57:45.214Z,101038.81
2022-12-05T16:00:48.977Z,101037.56
2022-12-05T16:04:04.050Z,101041.72
2022-12-05T16:07:09.696Z,101044.41
2022-12-05T16:10:16.579Z,101042.25
2022-12-05T16:13:21.114Z,101049.78
2022-12-05T16:16:26.554Z,101055.41
2022-12-05T16:19:29.678Z,101054.13
2022-12-05T16:22:33.936Z,101056.06
2022-12-05T16:25:37.596Z,101051.00
2022-12-05T16:28:40.124Z,101036.94
2022-12-05T16:31:43.073Z,101042.50
2022-12-05T16:34:45.699Z,101038.91
2022-12-05T16:37:48.072Z,101052.16
2022-12-05T16:40:50.378Z,101037.72
2022-12-05T16:43:54.089Z,101037.09
2022-12-05T16:46:57.126Z,101041.88
2022-12-05T16:49:59.576Z,101040.53
2022-12-05T16:53:16.000Z,101039.38
2022-12-05T16:56:30.668Z,101027.59
2022-12-05T16:59:38.011Z,101019.09
2022-12-05T17:02:40.322Z,101014.09
2022-12-05T17:05:42.852Z,101025.53
2022-12-05T17:08:45.277Z,101021.03
2022-12-05T17:11:49.293Z,101017.63
2022-12-05T17:14:51.744Z,101017.69
2022-12-05T17:17:54.886Z,101015.59
2022-12-05T17:20:57.840Z,101017.84
2022-12-05T17:24:00.524Z,101004.13
2022-12-05T17:27:03.146Z,101006.31
2022-12-05T17:30:06.229Z,100982.91
2022-12-05T17:33:12.295Z,100998.22
2022-12-05T17:36:15.034Z,100997.41
2022-12-05T17:39:17.347Z,100992.22
2022-12-05T17:42:19.701Z,100993.28
2022-12-05T17:45:22.456Z,100969.09
2022-12-05T17:48:26.474Z,100987.13
2022-12-05T17:51:28.988Z,100985.25
2022-12-05T17:54:31.608Z,100982.09
2022-12-05T17:57:33.950Z,100986.88
2022-12-05T18:00:36.512Z,100979.16
2022-12-05T18:03:38.997Z,100984.25
2022-12-05T18:06:41.348Z,100984.53
2022-12-05T18:09:43.734Z,100987.94
2022-12-05T18:12:47.421Z,100980.50
2022-12-05T18:15:49.944Z,100969.72
2022-12-05T18:18:52.268Z,100981.09
2022-12-05T18:21:54.516Z,100978.72
2022-12-05T18:24:58.433Z,100966.53
2022-12-05T18:28:01.223Z,100960.00
2022-12-05T18:31:14.851Z,100954.56
2022-12-05T18:34:17.302Z,100961.69
2022-12-05T18:37:19.802Z,100961.06
2022-12-05T18:40:22.146Z,100961.13
2022-12-05T18:43:24.477Z,100950.06
2022-12-05T18:46:26.960Z,100941.59
2022-12-05T18:49:29.383Z,100945.28
2022-12-05T18:52:31.671Z,100948.63
2022-12-05T18:56:04.770Z,100942.19
2022-12-05T18:58:59.993Z,100935.25
2022-12-05T19:02:02.534Z,100935.06
2022-12-05T19:05:05.769Z,100939.13
2022-12-05T19:08:08.256Z,100930.63
2022-12-05T19:11:12.416Z,100935.59
2022-12-05T19:14:16.250Z,100937.09
2022-12-05T19:17:18.563Z,100931.84
2022-12-05T19:20:20.892Z,100931.88
2022-12-05T19:23:23.745Z,100930.63
2022-12-05T19:26:26.517Z,100926.13
2022-12-05T19:29:29.011Z,100937.75
2022-12-05T19:32:34.298Z,100933.00
2022-12-05T19:35:40.767Z,100929.50
2022-12-05T19:38:44.803Z,100926.47
2022-12-05T19:41:47.509Z,100931.97
2022-12-05T19:44:50.001Z,100927.13
2022-12-05T19:47:52.341Z,100922.88
2022-12-05T19:50:59.100Z,100932.66
2022-12-05T19:54:02.793Z,100932.00
2022-12-05T19:57:05.169Z,100935.63
2022-12-05T20:00:08.077Z,100935.25
2022-12-05T20:03:14.630Z,100936.00
2022-12-05T20:06:17.758Z,100928.59
2022-12-05T20:09:22.356Z,100931.72
2022-12-05T20:12:24.744Z,100925.72
2022-12-05T20:15:27.156Z,100924.28
2022-12-05T20:18:29.918Z,100915.63
2022-12-05T20:21:34.281Z,100915.06
2022-12-05T20:24:36.694Z,100915.88
2022-12-05T20:27:39.095Z,100899.53
2022-12-05T20:30:41.518Z,100900.16
2022-12-05T20:33:44.342Z,100897.88
2022-12-05T20:36:46.682Z,100895.03
2022-12-05T20:39:50.219Z,100895.13
2022-12-05T20:42:52.533Z,100893.34
2022-12-05T20:45:55.359Z,100891.06
2022-12-05T20:48:58.134Z,100885.47
2022-12-05T20:52:00.472Z,100884.63
2022-12-05T20:55:02.877Z,100892.91
2022-12-05T20:58:05.460Z,100894.38
2022-12-05T21:01:09.789Z,100892.50
2022-12-05T21:04:12.596Z,100891.03
2022-12-05T21:07:15.434Z,100887.56
2022-12-05T21:10:17.818Z,100890.03
2022-12-05T21:13:20.914Z,100885.88
2022-12-05T21:16:23.581Z,100878.72
2022-12-05T21:19:27.028Z,100892.72
2022-12-05T21:22:29.354Z,100888.19
2022-12-05T21:25:33.415Z,100885.75
2022-12-05T21:28:36.595Z,100885.06
2022-12-05T21:31:40.753Z,100890.47
2022-12-05T21:34:43.101Z,100879.53
2022-12-05T21:37:45.454Z,100879.56
2022-12-05T21:40:47.857Z,100886.16
2022-12-05T21:43:54.557Z,100881.19
2022-12-05T21:46:58.545Z,100873.13
2022-12-05T21:50:01.195Z,100879.53
2022-12-05T21:53:03.754Z,100877.09
2022-12-05T21:56:11.775Z,100863.19
2022-12-05T21:59:14.122Z,100867.13
2022-12-05T22:02:16.517Z,100861.34
2022-12-05T22:05:19.012Z,100853.50
2022-12-05T22:08:21.400Z,100851.63
2022-12-05T22:11:25.009Z,100836.91
2022-12-05T22:14:27.391Z,100850.75
2022-12-05T22:17:29.827Z,100830.91
2022-12-05T22:20:32.166Z,100835.91
2022-12-05T22:23:35.517Z,100822.88
2022-12-05T22:26:37.950Z,100819.59
2022-12-05T22:29:40.417Z,100821.63
2022-12-05T22:32:42.752Z,100818.66
2022-12-05T22:35:51.469Z,100800.94
2022-12-05T22:38:53.831Z,100811.50
2022-12-05T22:41:58.437Z,100809.63
2022-12-05T22:45:00.732Z,100816.69
2022-12-05T22:48:03.090Z,100814.19
2022-12-05T22:51:06.955Z,100805.53
2022-12-05T22:54:09.263Z,100801.59
2022-12-05T22:57:11.768Z,100793.94
2022-12-05T23:00:14.639Z,100794.75
2022-12-05T23:03:17.007Z,100784.88
2022-12-05T23:06:19.440Z,100790.44
2022-12-05T23:09:21.975Z,100784.41
2022-12-05T23:12:24.292Z,100779.47
2022-12-05T23:15:26.619Z,100772.22
2022-12-05T23:18:29.092Z,100775.78
2022-12-05T23:21:39.396Z,100786.69
2022-12-05T23:24:41.828Z,100772.63
2022-12-05T23:27:44.205Z,100769.53
2022-12-05T23:30:46.486Z,100776.59
2022-12-05T23:33:51.447Z,100775.09
2022-12-05T23:36:54.185Z,100779.25
2022-12-05T23:39:56.808Z,100766.00
2022-12-05T23:42:59.234Z,100758.38
2022-12-05T23:46:02.589Z,100766.03
2022-12-05T23:49:04.937Z,100757.94
2022-12-05T23:52:07.339Z,100753.19
2022-12-05T23:55:10.090Z,100742.81
2022-12-05T23:58:12.374Z,100732.31
